Terminal Aerodrome Forecast
Issued by NWS

Home | Current Version | Previous Version | Text Only | Print | Product List | Glossary On
Versions: 1 2 3 4 5 6 7 8 9 10 11 12 13
283
FTUS44 KSJT 251544 AAA
TAFSOA
TAF AMD
KSOA 251544Z 2516/2612 02015G20KT P6SM VCTS BKN021CB
     FM251700 36014G24KT P6SM VCTS BKN012CB
      TEMPO 2520/2523 4SM -TSRA BKN007CB
     FM260300 VRB03KT P6SM BKN025
     FM260600 VRB03KT P6SM SKC=

USA.gov is the U.S. government's official web portal to all federal, state and local government web resources and services.